Terminal Aerodrome Forecast
Issued by NWS Paducah, KY

Home | Current Version | Previous Version | Text Only | Print | Product List | Glossary On
Versions: 1 2 3 4 5 6 7 8 9 10 11 12 13 14 15
000
FTUS43 KPAH 220525
TAFEVV
TAF
KEVV 220525Z 2206/2306 24009KT P6SM VCSH SCT050 BKN080
     FM221200 30014G20KT P6SM SCT050 BKN080
     FM230000 29005KT P6SM SKC=

USA.gov is the U.S. government's official web portal to all federal, state and local government web resources and services.